Rito de las Sillas, New Mexico
Current Conditions -  °F | °C
As of 12:55 AM on Sunday 26 Oct 2014 (Local Time) from KLAM Reporting Station
Clear Clear  
Wind Chill: 60°   Ceiling: Unl
Heat Index: 60°   Visibility: 10mi
Dew Point: 32°   Wind: 7mph
Humidity: 34%   Direction: 260°W
Pressure: 30.27"   Gusts: NA
Location:  36.1885°N, 106.557°W
Report Text: KLAM 260655Z AUTO 26006KT 10SM CLR 16/00 A3027 RMK AO2 T01570000
Loading
Personal Weather Stations






























Interactive Weather Map
Tropical Storm Tracking
New forecast layout! Learn more

10-Day Weather Forecast

Advertisements
Track Severe Weather on mobile